sensor_id;sensor_type;location;lat;lon;timestamp;P1;durP1;ratioP1;P2;durP2;ratioP2
35518;SDS011;21627;48.216;16.482;2023-01-19T00:01:31;8.80;;;6.23;;
35518;SDS011;21627;48.216;16.482;2023-01-19T00:03:58;8.87;;;5.83;;
35518;SDS011;21627;48.216;16.482;2023-01-19T00:06:25;9.77;;;6.10;;
35518;SDS011;21627;48.216;16.482;2023-01-19T00:08:53;11.53;;;6.23;;
35518;SDS011;21627;48.216;16.482;2023-01-19T00:11:20;7.50;;;5.83;;
35518;SDS011;21627;48.216;16.482;2023-01-19T00:13:48;11.70;;;5.70;;
35518;SDS011;21627;48.216;16.482;2023-01-19T00:16:17;8.53;;;5.93;;
35518;SDS011;21627;48.216;16.482;2023-01-19T00:18:49;8.60;;;5.80;;
35518;SDS011;21627;48.216;16.482;2023-01-19T00:21:17;8.60;;;5.70;;
35518;SDS011;21627;48.216;16.482;2023-01-19T00:23:47;11.80;;;6.10;;
35518;SDS011;21627;48.216;16.482;2023-01-19T00:26:16;8.60;;;6.10;;
35518;SDS011;21627;48.216;16.482;2023-01-19T00:28:44;10.00;;;6.33;;
35518;SDS011;21627;48.216;16.482;2023-01-19T00:31:11;9.37;;;6.03;;
35518;SDS011;21627;48.216;16.482;2023-01-19T00:33:38;9.50;;;6.03;;
35518;SDS011;21627;48.216;16.482;2023-01-19T00:36:06;11.03;;;6.20;;
35518;SDS011;21627;48.216;16.482;2023-01-19T00:38:34;11.90;;;6.73;;
35518;SDS011;21627;48.216;16.482;2023-01-19T00:41:01;8.33;;;6.27;;
35518;SDS011;21627;48.216;16.482;2023-01-19T00:43:28;9.97;;;6.60;;
35518;SDS011;21627;48.216;16.482;2023-01-19T00:45:55;9.10;;;5.97;;
35518;SDS011;21627;48.216;16.482;2023-01-19T00:48:23;8.43;;;5.80;;
35518;SDS011;21627;48.216;16.482;2023-01-19T00:50:50;7.80;;;5.87;;
35518;SDS011;21627;48.216;16.482;2023-01-19T00:53:17;12.80;;;6.63;;
35518;SDS011;21627;48.216;16.482;2023-01-19T00:55:44;9.33;;;6.43;;
35518;SDS011;21627;48.216;16.482;2023-01-19T00:58:11;8.47;;;5.97;;
35518;SDS011;21627;48.216;16.482;2023-01-19T01:00:38;8.37;;;6.17;;
35518;SDS011;21627;48.216;16.482;2023-01-19T01:03:06;7.93;;;5.90;;
35518;SDS011;21627;48.216;16.482;2023-01-19T01:05:33;9.77;;;5.80;;
35518;SDS011;21627;48.216;16.482;2023-01-19T01:08:00;7.77;;;5.23;;
35518;SDS011;21627;48.216;16.482;2023-01-19T01:10:27;8.57;;;5.80;;
35518;SDS011;21627;48.216;16.482;2023-01-19T01:12:55;7.37;;;5.50;;
35518;SDS011;21627;48.216;16.482;2023-01-19T01:15:42;8.60;;;5.77;;
35518;SDS011;21627;48.216;16.482;2023-01-19T01:18:09;8.97;;;5.53;;
35518;SDS011;21627;48.216;16.482;2023-01-19T01:20:36;7.60;;;5.53;;
35518;SDS011;21627;48.216;16.482;2023-01-19T01:23:07;9.23;;;5.47;;
35518;SDS011;21627;48.216;16.482;2023-01-19T01:25:34;9.27;;;5.80;;
35518;SDS011;21627;48.216;16.482;2023-01-19T01:28:04;8.67;;;5.90;;
35518;SDS011;21627;48.216;16.482;2023-01-19T01:30:34;7.87;;;5.77;;
35518;SDS011;21627;48.216;16.482;2023-01-19T01:33:08;9.67;;;5.90;;
35518;SDS011;21627;48.216;16.482;2023-01-19T01:35:37;7.97;;;5.60;;
35518;SDS011;21627;48.216;16.482;2023-01-19T01:38:04;9.30;;;6.20;;
35518;SDS011;21627;48.216;16.482;2023-01-19T01:40:31;11.07;;;6.50;;
35518;SDS011;21627;48.216;16.482;2023-01-19T01:42:58;8.90;;;5.97;;
35518;SDS011;21627;48.216;16.482;2023-01-19T01:45:33;7.70;;;5.67;;
35518;SDS011;21627;48.216;16.482;2023-01-19T01:51:03;12.60;;;6.60;;
35518;SDS011;21627;48.216;16.482;2023-01-19T01:53:54;10.82;;;6.47;;
35518;SDS011;21627;48.216;16.482;2023-01-19T01:56:49;9.20;;;5.93;;
35518;SDS011;21627;48.216;16.482;2023-01-19T01:59:23;10.37;;;6.37;;
35518;SDS011;21627;48.216;16.482;2023-01-19T02:02:06;8.30;;;6.07;;
35518;SDS011;21627;48.216;16.482;2023-01-19T02:05:01;11.33;;;5.90;;
35518;SDS011;21627;48.216;16.482;2023-01-19T02:10:57;8.43;;;5.63;;
35518;SDS011;21627;48.216;16.482;2023-01-19T02:13:44;10.23;;;5.93;;
35518;SDS011;21627;48.216;16.482;2023-01-19T02:16:17;8.40;;;5.67;;
35518;SDS011;21627;48.216;16.482;2023-01-19T02:18:48;8.53;;;5.43;;
35518;SDS011;21627;48.216;16.482;2023-01-19T02:23:56;6.83;;;5.10;;
35518;SDS011;21627;48.216;16.482;2023-01-19T02:31:29;7.33;;;5.43;;
35518;SDS011;21627;48.216;16.482;2023-01-19T02:33:58;6.60;;;5.50;;
35518;SDS011;21627;48.216;16.482;2023-01-19T02:36:29;7.83;;;5.57;;
35518;SDS011;21627;48.216;16.482;2023-01-19T02:39:02;7.97;;;5.57;;
35518;SDS011;21627;48.216;16.482;2023-01-19T02:41:33;9.07;;;6.00;;
35518;SDS011;21627;48.216;16.482;2023-01-19T02:44:07;8.90;;;5.80;;
35518;SDS011;21627;48.216;16.482;2023-01-19T02:46:36;7.83;;;5.47;;
35518;SDS011;21627;48.216;16.482;2023-01-19T02:49:04;7.43;;;5.40;;
35518;SDS011;21627;48.216;16.482;2023-01-19T02:51:31;7.73;;;5.27;;
35518;SDS011;21627;48.216;16.482;2023-01-19T03:00:02;8.53;;;5.67;;
35518;SDS011;21627;48.216;16.482;2023-01-19T03:08:41;6.37;;;4.80;;
35518;SDS011;21627;48.216;16.482;2023-01-19T03:11:21;6.73;;;5.10;;
35518;SDS011;21627;48.216;16.482;2023-01-19T03:14:06;7.90;;;5.83;;
35518;SDS011;21627;48.216;16.482;2023-01-19T03:16:42;7.37;;;5.37;;
35518;SDS011;21627;48.216;16.482;2023-01-19T03:19:17;8.03;;;6.23;;
35518;SDS011;21627;48.216;16.482;2023-01-19T03:22:43;9.57;;;6.30;;
35518;SDS011;21627;48.216;16.482;2023-01-19T03:24:55;10.43;;;6.33;;
35518;SDS011;21627;48.216;16.482;2023-01-19T03:29:58;11.90;;;6.93;;
35518;SDS011;21627;48.216;16.482;2023-01-19T03:32:59;11.00;;;7.13;;
35518;SDS011;21627;48.216;16.482;2023-01-19T03:35:36;11.50;;;7.10;;
35518;SDS011;21627;48.216;16.482;2023-01-19T03:38:12;13.50;;;7.63;;
35518;SDS011;21627;48.216;16.482;2023-01-19T03:40:44;9.73;;;6.97;;
35518;SDS011;21627;48.216;16.482;2023-01-19T03:43:14;10.83;;;7.33;;
35518;SDS011;21627;48.216;16.482;2023-01-19T03:45:42;12.33;;;7.97;;
35518;SDS011;21627;48.216;16.482;2023-01-19T03:48:10;10.63;;;7.73;;
35518;SDS011;21627;48.216;16.482;2023-01-19T03:50:38;11.43;;;7.73;;
35518;SDS011;21627;48.216;16.482;2023-01-19T03:53:07;13.30;;;7.20;;
35518;SDS011;21627;48.216;16.482;2023-01-19T03:55:39;10.93;;;7.70;;
35518;SDS011;21627;48.216;16.482;2023-01-19T03:58:13;11.30;;;8.07;;
35518;SDS011;21627;48.216;16.482;2023-01-19T04:00:40;11.93;;;8.57;;
35518;SDS011;21627;48.216;16.482;2023-01-19T04:03:14;12.17;;;8.03;;
35518;SDS011;21627;48.216;16.482;2023-01-19T04:08:10;12.20;;;8.07;;
35518;SDS011;21627;48.216;16.482;2023-01-19T04:10:37;12.57;;;8.50;;
35518;SDS011;21627;48.216;16.482;2023-01-19T04:13:05;12.60;;;8.33;;
35518;SDS011;21627;48.216;16.482;2023-01-19T04:15:32;14.80;;;9.20;;
35518;SDS011;21627;48.216;16.482;2023-01-19T04:18:02;13.47;;;8.40;;
35518;SDS011;21627;48.216;16.482;2023-01-19T04:20:30;14.63;;;8.57;;
35518;SDS011;21627;48.216;16.482;2023-01-19T04:22:59;11.87;;;8.17;;
35518;SDS011;21627;48.216;16.482;2023-01-19T04:25:28;17.03;;;8.90;;
35518;SDS011;21627;48.216;16.482;2023-01-19T04:27:55;14.27;;;9.40;;
35518;SDS011;21627;48.216;16.482;2023-01-19T04:30:25;12.73;;;8.93;;
35518;SDS011;21627;48.216;16.482;2023-01-19T04:32:53;12.53;;;8.83;;
35518;SDS011;21627;48.216;16.482;2023-01-19T04:35:21;11.33;;;8.33;;
35518;SDS011;21627;48.216;16.482;2023-01-19T04:37:49;12.47;;;8.73;;
35518;SDS011;21627;48.216;16.482;2023-01-19T04:40:16;15.07;;;8.57;;
35518;SDS011;21627;48.216;16.482;2023-01-19T04:42:43;10.90;;;8.50;;
35518;SDS011;21627;48.216;16.482;2023-01-19T04:45:12;15.10;;;9.37;;
35518;SDS011;21627;48.216;16.482;2023-01-19T04:47:39;12.47;;;8.57;;
35518;SDS011;21627;48.216;16.482;2023-01-19T04:50:08;12.47;;;8.47;;
35518;SDS011;21627;48.216;16.482;2023-01-19T04:52:36;15.93;;;8.40;;
35518;SDS011;21627;48.216;16.482;2023-01-19T04:55:04;11.87;;;8.27;;
35518;SDS011;21627;48.216;16.482;2023-01-19T04:57:32;12.93;;;8.30;;
35518;SDS011;21627;48.216;16.482;2023-01-19T05:00:00;15.60;;;8.40;;
35518;SDS011;21627;48.216;16.482;2023-01-19T05:02:28;13.43;;;8.00;;
35518;SDS011;21627;48.216;16.482;2023-01-19T05:04:55;13.13;;;8.30;;
35518;SDS011;21627;48.216;16.482;2023-01-19T05:07:22;11.73;;;7.70;;
35518;SDS011;21627;48.216;16.482;2023-01-19T05:09:49;10.57;;;7.63;;
35518;SDS011;21627;48.216;16.482;2023-01-19T05:12:17;12.37;;;8.43;;
35518;SDS011;21627;48.216;16.482;2023-01-19T05:14:44;12.20;;;7.90;;
35518;SDS011;21627;48.216;16.482;2023-01-19T05:17:14;14.90;;;8.40;;
35518;SDS011;21627;48.216;16.482;2023-01-19T05:19:41;12.53;;;8.50;;
35518;SDS011;21627;48.216;16.482;2023-01-19T05:22:09;14.27;;;8.30;;
35518;SDS011;21627;48.216;16.482;2023-01-19T05:24:36;13.57;;;8.40;;
35518;SDS011;21627;48.216;16.482;2023-01-19T05:27:03;15.20;;;8.53;;
35518;SDS011;21627;48.216;16.482;2023-01-19T05:29:30;13.77;;;8.53;;
35518;SDS011;21627;48.216;16.482;2023-01-19T05:31:58;13.07;;;8.17;;
35518;SDS011;21627;48.216;16.482;2023-01-19T05:34:26;14.47;;;8.53;;
35518;SDS011;21627;48.216;16.482;2023-01-19T05:36:53;14.23;;;8.90;;
35518;SDS011;21627;48.216;16.482;2023-01-19T05:39:20;14.03;;;8.67;;
35518;SDS011;21627;48.216;16.482;2023-01-19T05:41:48;12.47;;;8.37;;
35518;SDS011;21627;48.216;16.482;2023-01-19T05:44:15;12.63;;;8.30;;
35518;SDS011;21627;48.216;16.482;2023-01-19T05:46:42;13.40;;;8.33;;
35518;SDS011;21627;48.216;16.482;2023-01-19T05:49:10;11.33;;;7.93;;
35518;SDS011;21627;48.216;16.482;2023-01-19T05:51:38;12.73;;;8.47;;
35518;SDS011;21627;48.216;16.482;2023-01-19T05:54:11;15.17;;;8.70;;
35518;SDS011;21627;48.216;16.482;2023-01-19T05:56:42;12.50;;;9.07;;
35518;SDS011;21627;48.216;16.482;2023-01-19T05:59:09;10.73;;;7.53;;
35518;SDS011;21627;48.216;16.482;2023-01-19T06:01:37;12.70;;;8.07;;
35518;SDS011;21627;48.216;16.482;2023-01-19T06:04:05;11.10;;;8.30;;
35518;SDS011;21627;48.216;16.482;2023-01-19T06:06:33;12.30;;;8.23;;
35518;SDS011;21627;48.216;16.482;2023-01-19T06:09:00;21.07;;;8.73;;
35518;SDS011;21627;48.216;16.482;2023-01-19T06:11:27;13.30;;;8.47;;
35518;SDS011;21627;48.216;16.482;2023-01-19T06:13:54;11.87;;;8.37;;
35518;SDS011;21627;48.216;16.482;2023-01-19T06:16:22;15.23;;;8.13;;
35518;SDS011;21627;48.216;16.482;2023-01-19T06:18:49;13.10;;;8.37;;
35518;SDS011;21627;48.216;16.482;2023-01-19T06:21:16;14.03;;;8.43;;
35518;SDS011;21627;48.216;16.482;2023-01-19T06:23:43;13.73;;;9.00;;
35518;SDS011;21627;48.216;16.482;2023-01-19T06:26:11;16.20;;;9.23;;
35518;SDS011;21627;48.216;16.482;2023-01-19T06:28:38;13.60;;;8.50;;
35518;SDS011;21627;48.216;16.482;2023-01-19T06:31:06;13.17;;;8.67;;
35518;SDS011;21627;48.216;16.482;2023-01-19T06:33:33;15.73;;;9.00;;
35518;SDS011;21627;48.216;16.482;2023-01-19T06:36:00;13.87;;;9.13;;
35518;SDS011;21627;48.216;16.482;2023-01-19T06:38:27;13.80;;;8.60;;
35518;SDS011;21627;48.216;16.482;2023-01-19T06:40:55;13.27;;;8.57;;
35518;SDS011;21627;48.216;16.482;2023-01-19T06:43:28;13.97;;;9.27;;
35518;SDS011;21627;48.216;16.482;2023-01-19T06:45:56;13.53;;;9.17;;
35518;SDS011;21627;48.216;16.482;2023-01-19T06:48:25;15.13;;;8.80;;
35518;SDS011;21627;48.216;16.482;2023-01-19T06:50:56;15.10;;;9.30;;
35518;SDS011;21627;48.216;16.482;2023-01-19T06:53:25;14.03;;;8.67;;
35518;SDS011;21627;48.216;16.482;2023-01-19T06:55:57;14.30;;;9.13;;
35518;SDS011;21627;48.216;16.482;2023-01-19T06:58:32;15.27;;;9.70;;
35518;SDS011;21627;48.216;16.482;2023-01-19T07:01:00;14.43;;;8.93;;
35518;SDS011;21627;48.216;16.482;2023-01-19T07:03:29;14.07;;;9.13;;
35518;SDS011;21627;48.216;16.482;2023-01-19T07:05:57;13.17;;;8.47;;
35518;SDS011;21627;48.216;16.482;2023-01-19T07:08:28;11.90;;;8.13;;
35518;SDS011;21627;48.216;16.482;2023-01-19T07:11:01;13.70;;;8.67;;
35518;SDS011;21627;48.216;16.482;2023-01-19T07:13:54;14.73;;;8.77;;
35518;SDS011;21627;48.216;16.482;2023-01-19T07:16:22;13.77;;;8.63;;
35518;SDS011;21627;48.216;16.482;2023-01-19T07:18:49;14.07;;;8.73;;
35518;SDS011;21627;48.216;16.482;2023-01-19T07:21:17;11.90;;;8.37;;
35518;SDS011;21627;48.216;16.482;2023-01-19T07:23:47;13.43;;;8.20;;
35518;SDS011;21627;48.216;16.482;2023-01-19T07:26:18;12.07;;;7.60;;
35518;SDS011;21627;48.216;16.482;2023-01-19T07:28:47;13.83;;;8.40;;
35518;SDS011;21627;48.216;16.482;2023-01-19T07:31:15;13.93;;;8.43;;
35518;SDS011;21627;48.216;16.482;2023-01-19T07:33:43;10.57;;;7.63;;
35518;SDS011;21627;48.216;16.482;2023-01-19T07:36:11;13.87;;;8.37;;
35518;SDS011;21627;48.216;16.482;2023-01-19T07:38:39;12.03;;;8.20;;
35518;SDS011;21627;48.216;16.482;2023-01-19T07:41:07;13.43;;;8.67;;
35518;SDS011;21627;48.216;16.482;2023-01-19T07:43:35;15.67;;;8.60;;
35518;SDS011;21627;48.216;16.482;2023-01-19T07:46:03;13.20;;;8.10;;
35518;SDS011;21627;48.216;16.482;2023-01-19T07:48:32;12.43;;;7.73;;
35518;SDS011;21627;48.216;16.482;2023-01-19T07:51:00;12.33;;;8.17;;
35518;SDS011;21627;48.216;16.482;2023-01-19T07:53:38;14.20;;;8.17;;
35518;SDS011;21627;48.216;16.482;2023-01-19T07:56:07;14.47;;;8.57;;
35518;SDS011;21627;48.216;16.482;2023-01-19T07:58:35;11.13;;;7.77;;
35518;SDS011;21627;48.216;16.482;2023-01-19T08:01:09;10.97;;;7.37;;
35518;SDS011;21627;48.216;16.482;2023-01-19T08:06:05;11.93;;;7.83;;
35518;SDS011;21627;48.216;16.482;2023-01-19T08:08:38;14.63;;;7.93;;
35518;SDS011;21627;48.216;16.482;2023-01-19T08:11:05;12.23;;;8.33;;
35518;SDS011;21627;48.216;16.482;2023-01-19T08:13:33;13.37;;;7.63;;
35518;SDS011;21627;48.216;16.482;2023-01-19T08:16:00;12.33;;;8.10;;
35518;SDS011;21627;48.216;16.482;2023-01-19T08:18:28;10.93;;;8.07;;
35518;SDS011;21627;48.216;16.482;2023-01-19T08:20:58;12.77;;;7.83;;
35518;SDS011;21627;48.216;16.482;2023-01-19T08:23:25;10.70;;;7.67;;
35518;SDS011;21627;48.216;16.482;2023-01-19T08:25:53;12.73;;;7.77;;
35518;SDS011;21627;48.216;16.482;2023-01-19T08:28:21;12.57;;;7.67;;
35518;SDS011;21627;48.216;16.482;2023-01-19T08:30:49;12.13;;;7.77;;
35518;SDS011;21627;48.216;16.482;2023-01-19T08:33:20;11.03;;;8.13;;
35518;SDS011;21627;48.216;16.482;2023-01-19T08:35:50;15.43;;;7.43;;
35518;SDS011;21627;48.216;16.482;2023-01-19T08:38:19;8.90;;;6.53;;
35518;SDS011;21627;48.216;16.482;2023-01-19T08:40:47;12.87;;;7.47;;
35518;SDS011;21627;48.216;16.482;2023-01-19T08:43:15;9.87;;;7.07;;
35518;SDS011;21627;48.216;16.482;2023-01-19T08:45:49;10.20;;;7.17;;
35518;SDS011;21627;48.216;16.482;2023-01-19T08:48:18;9.60;;;6.77;;
35518;SDS011;21627;48.216;16.482;2023-01-19T08:50:48;10.50;;;7.40;;
35518;SDS011;21627;48.216;16.482;2023-01-19T08:53:17;13.50;;;7.37;;
35518;SDS011;21627;48.216;16.482;2023-01-19T08:55:46;12.03;;;7.90;;
35518;SDS011;21627;48.216;16.482;2023-01-19T08:58:14;23.00;;;8.57;;
35518;SDS011;21627;48.216;16.482;2023-01-19T09:00:42;12.13;;;7.67;;
35518;SDS011;21627;48.216;16.482;2023-01-19T09:03:10;13.83;;;8.87;;
35518;SDS011;21627;48.216;16.482;2023-01-19T09:05:41;14.70;;;8.87;;
35518;SDS011;21627;48.216;16.482;2023-01-19T09:08:10;11.43;;;7.67;;
35518;SDS011;21627;48.216;16.482;2023-01-19T09:10:43;12.70;;;7.40;;
35518;SDS011;21627;48.216;16.482;2023-01-19T09:13:17;13.30;;;8.20;;
35518;SDS011;21627;48.216;16.482;2023-01-19T09:15:45;11.63;;;7.70;;
35518;SDS011;21627;48.216;16.482;2023-01-19T09:18:14;11.30;;;7.57;;
35518;SDS011;21627;48.216;16.482;2023-01-19T09:20:47;10.63;;;7.10;;
35518;SDS011;21627;48.216;16.482;2023-01-19T09:23:17;11.13;;;7.10;;
35518;SDS011;21627;48.216;16.482;2023-01-19T09:25:46;13.00;;;7.17;;
35518;SDS011;21627;48.216;16.482;2023-01-19T09:28:14;11.43;;;7.40;;
35518;SDS011;21627;48.216;16.482;2023-01-19T09:30:43;9.97;;;7.17;;
35518;SDS011;21627;48.216;16.482;2023-01-19T09:33:12;13.90;;;7.33;;
35518;SDS011;21627;48.216;16.482;2023-01-19T09:35:41;10.07;;;6.70;;
35518;SDS011;21627;48.216;16.482;2023-01-19T09:38:11;10.30;;;7.13;;
35518;SDS011;21627;48.216;16.482;2023-01-19T09:40:41;13.87;;;6.80;;
35518;SDS011;21627;48.216;16.482;2023-01-19T09:46:24;7.93;;;5.83;;
35518;SDS011;21627;48.216;16.482;2023-01-19T09:49:13;8.40;;;6.03;;
35518;SDS011;21627;48.216;16.482;2023-01-19T09:51:46;11.13;;;6.83;;
35518;SDS011;21627;48.216;16.482;2023-01-19T09:54:16;8.93;;;6.10;;
35518;SDS011;21627;48.216;16.482;2023-01-19T09:56:52;9.82;;;5.68;;
35518;SDS011;21627;48.216;16.482;2023-01-19T09:59:25;9.70;;;5.93;;
35518;SDS011;21627;48.216;16.482;2023-01-19T10:19:01;6.70;;;4.93;;
35518;SDS011;21627;48.216;16.482;2023-01-19T10:21:48;9.47;;;5.50;;
35518;SDS011;21627;48.216;16.482;2023-01-19T10:24:22;10.23;;;5.63;;
35518;SDS011;21627;48.216;16.482;2023-01-19T10:27:09;7.73;;;5.47;;
35518;SDS011;21627;48.216;16.482;2023-01-19T10:29:43;7.53;;;5.00;;
35518;SDS011;21627;48.216;16.482;2023-01-19T10:34:52;5.63;;;4.43;;
35518;SDS011;21627;48.216;16.482;2023-01-19T10:42:36;6.37;;;4.33;;
35518;SDS011;21627;48.216;16.482;2023-01-19T10:45:16;4.77;;;3.90;;
35518;SDS011;21627;48.216;16.482;2023-01-19T10:47:59;6.27;;;4.20;;
35518;SDS011;21627;48.216;16.482;2023-01-19T10:50:33;7.23;;;4.17;;
35518;SDS011;21627;48.216;16.482;2023-01-19T10:53:05;6.97;;;4.67;;
35518;SDS011;21627;48.216;16.482;2023-01-19T10:55:47;7.50;;;5.10;;
35518;SDS011;21627;48.216;16.482;2023-01-19T10:58:48;7.90;;;5.60;;
35518;SDS011;21627;48.216;16.482;2023-01-19T11:01:26;7.60;;;5.60;;
35518;SDS011;21627;48.216;16.482;2023-01-19T11:03:56;10.70;;;6.23;;
35518;SDS011;21627;48.216;16.482;2023-01-19T11:06:31;9.73;;;6.38;;
35518;SDS011;21627;48.216;16.482;2023-01-19T11:09:18;10.30;;;6.27;;
35518;SDS011;21627;48.216;16.482;2023-01-19T11:11:50;10.13;;;6.30;;
35518;SDS011;21627;48.216;16.482;2023-01-19T11:14:19;9.93;;;6.83;;
35518;SDS011;21627;48.216;16.482;2023-01-19T11:16:51;11.07;;;6.60;;
35518;SDS011;21627;48.216;16.482;2023-01-19T11:19:28;10.77;;;6.97;;
35518;SDS011;21627;48.216;16.482;2023-01-19T11:22:17;8.17;;;6.43;;
35518;SDS011;21627;48.216;16.482;2023-01-19T11:25:03;9.80;;;6.57;;
35518;SDS011;21627;48.216;16.482;2023-01-19T11:27:33;10.10;;;7.10;;
35518;SDS011;21627;48.216;16.482;2023-01-19T11:32:45;9.90;;;6.83;;
35518;SDS011;21627;48.216;16.482;2023-01-19T11:35:34;8.67;;;6.67;;
35518;SDS011;21627;48.216;16.482;2023-01-19T11:40:33;10.67;;;5.93;;
35518;SDS011;21627;48.216;16.482;2023-01-19T11:43:01;11.53;;;6.40;;
35518;SDS011;21627;48.216;16.482;2023-01-19T11:45:29;9.00;;;6.43;;
35518;SDS011;21627;48.216;16.482;2023-01-19T11:48:03;7.57;;;6.07;;
35518;SDS011;21627;48.216;16.482;2023-01-19T11:50:41;7.97;;;5.53;;
35518;SDS011;21627;48.216;16.482;2023-01-19T11:55:56;11.27;;;5.20;;
35518;SDS011;21627;48.216;16.482;2023-01-19T11:58:47;9.23;;;5.30;;
35518;SDS011;21627;48.216;16.482;2023-01-19T12:01:19;6.83;;;5.00;;
35518;SDS011;21627;48.216;16.482;2023-01-19T12:04:13;5.70;;;4.37;;
35518;SDS011;21627;48.216;16.482;2023-01-19T12:07:02;5.97;;;3.77;;
35518;SDS011;21627;48.216;16.482;2023-01-19T12:09:41;5.50;;;3.87;;
35518;SDS011;21627;48.216;16.482;2023-01-19T12:12:23;6.27;;;4.30;;
35518;SDS011;21627;48.216;16.482;2023-01-19T12:17:35;6.17;;;4.10;;
35518;SDS011;21627;48.216;16.482;2023-01-19T12:29:10;11.53;;;3.57;;
35518;SDS011;21627;48.216;16.482;2023-01-19T12:31:43;4.53;;;2.80;;
35518;SDS011;21627;48.216;16.482;2023-01-19T12:34:37;4.27;;;2.80;;
35518;SDS011;21627;48.216;16.482;2023-01-19T12:39:56;3.23;;;2.50;;
35518;SDS011;21627;48.216;16.482;2023-01-19T12:42:54;4.03;;;2.40;;
35518;SDS011;21627;48.216;16.482;2023-01-19T12:45:31;4.20;;;2.53;;
35518;SDS011;21627;48.216;16.482;2023-01-19T12:48:01;4.97;;;2.60;;
35518;SDS011;21627;48.216;16.482;2023-01-19T12:50:32;3.50;;;2.67;;
35518;SDS011;21627;48.216;16.482;2023-01-19T12:53:14;4.22;;;2.60;;
35518;SDS011;21627;48.216;16.482;2023-01-19T12:55:56;4.23;;;2.83;;
35518;SDS011;21627;48.216;16.482;2023-01-19T12:58:26;4.43;;;3.13;;
35518;SDS011;21627;48.216;16.482;2023-01-19T13:01:14;5.87;;;3.23;;
35518;SDS011;21627;48.216;16.482;2023-01-19T13:03:45;4.63;;;3.07;;
35518;SDS011;21627;48.216;16.482;2023-01-19T13:09:32;6.00;;;3.67;;
35518;SDS011;21627;48.216;16.482;2023-01-19T13:12:36;5.57;;;3.10;;
35518;SDS011;21627;48.216;16.482;2023-01-19T13:17:59;6.77;;;4.00;;
35518;SDS011;21627;48.216;16.482;2023-01-19T13:20:30;6.77;;;3.67;;
35518;SDS011;21627;48.216;16.482;2023-01-19T13:23:17;12.17;;;4.23;;
35518;SDS011;21627;48.216;16.482;2023-01-19T13:26:18;5.33;;;3.63;;
35518;SDS011;21627;48.216;16.482;2023-01-19T13:28:55;8.20;;;4.43;;
35518;SDS011;21627;48.216;16.482;2023-01-19T13:31:32;11.50;;;4.10;;
35518;SDS011;21627;48.216;16.482;2023-01-19T13:34:24;8.63;;;4.20;;
35518;SDS011;21627;48.216;16.482;2023-01-19T13:36:56;6.27;;;3.87;;
35518;SDS011;21627;48.216;16.482;2023-01-19T13:39:29;5.80;;;4.23;;
35518;SDS011;21627;48.216;16.482;2023-01-19T13:42:04;11.87;;;4.67;;
35518;SDS011;21627;48.216;16.482;2023-01-19T13:44:46;6.60;;;4.47;;
35518;SDS011;21627;48.216;16.482;2023-01-19T13:47:19;6.80;;;4.70;;
35518;SDS011;21627;48.216;16.482;2023-01-19T13:49:53;9.10;;;4.37;;
35518;SDS011;21627;48.216;16.482;2023-01-19T13:52:27;7.10;;;4.67;;
35518;SDS011;21627;48.216;16.482;2023-01-19T13:54:59;7.83;;;4.50;;
35518;SDS011;21627;48.216;16.482;2023-01-19T13:57:31;5.05;;;3.85;;
35518;SDS011;21627;48.216;16.482;2023-01-19T14:05:28;8.70;;;4.27;;
35518;SDS011;21627;48.216;16.482;2023-01-19T14:08:11;6.53;;;4.43;;
35518;SDS011;21627;48.216;16.482;2023-01-19T14:15:56;7.07;;;3.83;;
35518;SDS011;21627;48.216;16.482;2023-01-19T14:18:27;5.80;;;4.00;;
35518;SDS011;21627;48.216;16.482;2023-01-19T14:32:11;7.43;;;4.40;;
35518;SDS011;21627;48.216;16.482;2023-01-19T14:34:46;5.90;;;3.90;;
35518;SDS011;21627;48.216;16.482;2023-01-19T14:37:33;6.13;;;4.33;;
35518;SDS011;21627;48.216;16.482;2023-01-19T14:40:14;13.10;;;7.77;;
35518;SDS011;21627;48.216;16.482;2023-01-19T14:42:51;12.20;;;7.43;;
35518;SDS011;21627;48.216;16.482;2023-01-19T14:45:24;13.75;;;7.93;;
35518;SDS011;21627;48.216;16.482;2023-01-19T14:48:14;16.60;;;8.83;;
35518;SDS011;21627;48.216;16.482;2023-01-19T14:50:50;13.43;;;7.77;;
35518;SDS011;21627;48.216;16.482;2023-01-19T14:53:35;12.73;;;7.47;;
35518;SDS011;21627;48.216;16.482;2023-01-19T14:56:04;11.53;;;7.53;;
35518;SDS011;21627;48.216;16.482;2023-01-19T14:58:33;11.90;;;7.80;;
35518;SDS011;21627;48.216;16.482;2023-01-19T15:01:01;14.03;;;7.97;;
35518;SDS011;21627;48.216;16.482;2023-01-19T15:03:30;13.90;;;8.10;;
35518;SDS011;21627;48.216;16.482;2023-01-19T15:06:13;17.93;;;8.63;;
35518;SDS011;21627;48.216;16.482;2023-01-19T15:08:46;11.80;;;7.87;;
35518;SDS011;21627;48.216;16.482;2023-01-19T15:13:57;12.90;;;7.40;;
35518;SDS011;21627;48.216;16.482;2023-01-19T15:16:26;12.80;;;7.83;;
35518;SDS011;21627;48.216;16.482;2023-01-19T15:18:56;16.97;;;8.80;;
35518;SDS011;21627;48.216;16.482;2023-01-19T15:21:24;16.93;;;9.47;;
35518;SDS011;21627;48.216;16.482;2023-01-19T15:23:54;14.00;;;8.33;;
35518;SDS011;21627;48.216;16.482;2023-01-19T15:26:24;13.67;;;7.37;;
35518;SDS011;21627;48.216;16.482;2023-01-19T15:28:52;17.13;;;9.00;;
35518;SDS011;21627;48.216;16.482;2023-01-19T15:31:22;15.73;;;9.30;;
35518;SDS011;21627;48.216;16.482;2023-01-19T15:33:51;14.20;;;9.07;;
35518;SDS011;21627;48.216;16.482;2023-01-19T15:36:19;18.57;;;9.30;;
35518;SDS011;21627;48.216;16.482;2023-01-19T15:38:47;16.83;;;8.80;;
35518;SDS011;21627;48.216;16.482;2023-01-19T15:41:23;17.20;;;9.70;;
35518;SDS011;21627;48.216;16.482;2023-01-19T15:43:53;14.60;;;9.50;;
35518;SDS011;21627;48.216;16.482;2023-01-19T15:46:21;18.17;;;9.87;;
35518;SDS011;21627;48.216;16.482;2023-01-19T15:48:50;18.70;;;9.83;;
35518;SDS011;21627;48.216;16.482;2023-01-19T15:51:20;17.07;;;10.60;;
35518;SDS011;21627;48.216;16.482;2023-01-19T15:53:52;16.43;;;10.47;;
35518;SDS011;21627;48.216;16.482;2023-01-19T15:56:21;17.97;;;10.77;;
35518;SDS011;21627;48.216;16.482;2023-01-19T15:58:55;21.00;;;11.67;;
35518;SDS011;21627;48.216;16.482;2023-01-19T16:01:27;16.13;;;10.60;;
35518;SDS011;21627;48.216;16.482;2023-01-19T16:04:00;18.55;;;11.38;;
35518;SDS011;21627;48.216;16.482;2023-01-19T16:06:29;19.00;;;11.33;;
35518;SDS011;21627;48.216;16.482;2023-01-19T16:08:57;17.60;;;11.07;;
35518;SDS011;21627;48.216;16.482;2023-01-19T16:11:27;18.37;;;11.37;;
35518;SDS011;21627;48.216;16.482;2023-01-19T16:14:00;17.33;;;11.70;;
35518;SDS011;21627;48.216;16.482;2023-01-19T16:16:27;21.30;;;11.63;;
35518;SDS011;21627;48.216;16.482;2023-01-19T16:18:55;21.63;;;11.10;;
35518;SDS011;21627;48.216;16.482;2023-01-19T16:21:23;15.90;;;10.40;;
35518;SDS011;21627;48.216;16.482;2023-01-19T16:23:51;20.40;;;11.10;;
35518;SDS011;21627;48.216;16.482;2023-01-19T16:26:29;25.20;;;12.13;;
35518;SDS011;21627;48.216;16.482;2023-01-19T16:29:04;22.23;;;12.70;;
35518;SDS011;21627;48.216;16.482;2023-01-19T16:31:34;22.53;;;13.03;;
35518;SDS011;21627;48.216;16.482;2023-01-19T16:34:07;18.53;;;11.67;;
35518;SDS011;21627;48.216;16.482;2023-01-19T16:36:36;19.53;;;11.77;;
35518;SDS011;21627;48.216;16.482;2023-01-19T16:39:07;19.57;;;11.87;;
35518;SDS011;21627;48.216;16.482;2023-01-19T16:41:40;20.67;;;12.07;;
35518;SDS011;21627;48.216;16.482;2023-01-19T16:44:12;20.23;;;11.90;;
35518;SDS011;21627;48.216;16.482;2023-01-19T16:46:42;19.53;;;12.27;;
35518;SDS011;21627;48.216;16.482;2023-01-19T16:49:13;22.63;;;12.20;;